sensor_id;sensor_type;location;lat;lon;timestamp;P1;durP1;ratioP1;P2;durP2;ratioP2
14799;SDS011;7491;57.750;11.970;2023-11-21T00:00:16;12.48;;;8.57;;
14799;SDS011;7491;57.750;11.970;2023-11-21T00:02:43;11.77;;;7.63;;
14799;SDS011;7491;57.750;11.970;2023-11-21T00:05:11;11.55;;;8.50;;
14799;SDS011;7491;57.750;11.970;2023-11-21T00:07:39;11.80;;;7.45;;
14799;SDS011;7491;57.750;11.970;2023-11-21T00:10:07;14.05;;;9.32;;
14799;SDS011;7491;57.750;11.970;2023-11-21T00:12:35;12.95;;;9.10;;
14799;SDS011;7491;57.750;11.970;2023-11-21T00:15:02;13.70;;;8.95;;
14799;SDS011;7491;57.750;11.970;2023-11-21T00:17:31;15.13;;;8.57;;
14799;SDS011;7491;57.750;11.970;2023-11-21T00:19:58;11.75;;;8.70;;
14799;SDS011;7491;57.750;11.970;2023-11-21T00:22:25;11.40;;;9.25;;
14799;SDS011;7491;57.750;11.970;2023-11-21T00:24:51;13.95;;;9.98;;
14799;SDS011;7491;57.750;11.970;2023-11-21T00:27:18;13.45;;;9.23;;
14799;SDS011;7491;57.750;11.970;2023-11-21T00:29:45;10.90;;;8.30;;
14799;SDS011;7491;57.750;11.970;2023-11-21T00:32:12;12.10;;;9.77;;
14799;SDS011;7491;57.750;11.970;2023-11-21T00:34:40;14.20;;;9.57;;
14799;SDS011;7491;57.750;11.970;2023-11-21T00:37:07;14.93;;;10.50;;
14799;SDS011;7491;57.750;11.970;2023-11-21T00:39:34;12.80;;;9.48;;
14799;SDS011;7491;57.750;11.970;2023-11-21T00:42:01;10.63;;;8.18;;
14799;SDS011;7491;57.750;11.970;2023-11-21T00:44:29;16.65;;;9.70;;
14799;SDS011;7491;57.750;11.970;2023-11-21T00:46:55;13.00;;;10.77;;
14799;SDS011;7491;57.750;11.970;2023-11-21T00:49:22;12.27;;;9.65;;
14799;SDS011;7491;57.750;11.970;2023-11-21T00:51:50;12.50;;;9.18;;
14799;SDS011;7491;57.750;11.970;2023-11-21T00:54:17;11.93;;;8.77;;
14799;SDS011;7491;57.750;11.970;2023-11-21T00:56:43;12.18;;;8.68;;
14799;SDS011;7491;57.750;11.970;2023-11-21T00:59:12;12.80;;;9.23;;
14799;SDS011;7491;57.750;11.970;2023-11-21T01:01:39;13.38;;;8.75;;
14799;SDS011;7491;57.750;11.970;2023-11-21T01:04:05;14.10;;;9.90;;
14799;SDS011;7491;57.750;11.970;2023-11-21T01:06:32;15.52;;;9.57;;
14799;SDS011;7491;57.750;11.970;2023-11-21T01:09:01;12.90;;;8.82;;
14799;SDS011;7491;57.750;11.970;2023-11-21T01:11:32;13.93;;;9.32;;
14799;SDS011;7491;57.750;11.970;2023-11-21T01:14:01;12.93;;;8.98;;
14799;SDS011;7491;57.750;11.970;2023-11-21T01:16:28;13.60;;;10.15;;
14799;SDS011;7491;57.750;11.970;2023-11-21T01:18:57;15.23;;;9.02;;
14799;SDS011;7491;57.750;11.970;2023-11-21T01:21:24;13.68;;;9.45;;
14799;SDS011;7491;57.750;11.970;2023-11-21T01:23:51;14.30;;;9.75;;
14799;SDS011;7491;57.750;11.970;2023-11-21T01:26:19;17.75;;;13.82;;
14799;SDS011;7491;57.750;11.970;2023-11-21T01:28:45;13.93;;;10.10;;
14799;SDS011;7491;57.750;11.970;2023-11-21T01:31:14;12.90;;;9.88;;
14799;SDS011;7491;57.750;11.970;2023-11-21T01:33:40;14.73;;;10.05;;
14799;SDS011;7491;57.750;11.970;2023-11-21T01:36:07;13.95;;;9.73;;
14799;SDS011;7491;57.750;11.970;2023-11-21T01:38:35;16.00;;;9.73;;
14799;SDS011;7491;57.750;11.970;2023-11-21T01:41:02;14.98;;;9.70;;
14799;SDS011;7491;57.750;11.970;2023-11-21T01:43:30;13.77;;;9.90;;
14799;SDS011;7491;57.750;11.970;2023-11-21T01:45:57;13.57;;;9.40;;
14799;SDS011;7491;57.750;11.970;2023-11-21T01:48:24;12.43;;;8.98;;
14799;SDS011;7491;57.750;11.970;2023-11-21T01:50:52;13.18;;;8.95;;
14799;SDS011;7491;57.750;11.970;2023-11-21T01:53:19;12.73;;;8.98;;
14799;SDS011;7491;57.750;11.970;2023-11-21T01:55:46;12.05;;;8.65;;
14799;SDS011;7491;57.750;11.970;2023-11-21T01:58:13;12.57;;;9.40;;
14799;SDS011;7491;57.750;11.970;2023-11-21T02:00:41;13.82;;;8.75;;
14799;SDS011;7491;57.750;11.970;2023-11-21T02:03:08;11.80;;;9.23;;
14799;SDS011;7491;57.750;11.970;2023-11-21T02:05:35;11.52;;;8.52;;
14799;SDS011;7491;57.750;11.970;2023-11-21T02:08:02;12.82;;;8.93;;
14799;SDS011;7491;57.750;11.970;2023-11-21T02:10:30;11.73;;;8.10;;
14799;SDS011;7491;57.750;11.970;2023-11-21T02:12:56;13.90;;;9.52;;
14799;SDS011;7491;57.750;11.970;2023-11-21T02:15:23;10.32;;;8.05;;
14799;SDS011;7491;57.750;11.970;2023-11-21T02:17:55;15.48;;;9.93;;
14799;SDS011;7491;57.750;11.970;2023-11-21T02:20:23;13.13;;;8.73;;
14799;SDS011;7491;57.750;11.970;2023-11-21T02:22:53;12.35;;;9.23;;
14799;SDS011;7491;57.750;11.970;2023-11-21T02:25:23;15.18;;;9.30;;
14799;SDS011;7491;57.750;11.970;2023-11-21T02:27:49;14.38;;;9.45;;
14799;SDS011;7491;57.750;11.970;2023-11-21T02:30:16;15.93;;;8.85;;
14799;SDS011;7491;57.750;11.970;2023-11-21T02:32:43;12.60;;;8.95;;
14799;SDS011;7491;57.750;11.970;2023-11-21T02:35:11;14.65;;;8.77;;
14799;SDS011;7491;57.750;11.970;2023-11-21T02:37:38;10.90;;;8.45;;
14799;SDS011;7491;57.750;11.970;2023-11-21T02:40:08;11.05;;;8.38;;
14799;SDS011;7491;57.750;11.970;2023-11-21T02:42:37;12.98;;;8.45;;
14799;SDS011;7491;57.750;11.970;2023-11-21T02:45:05;10.60;;;7.93;;
14799;SDS011;7491;57.750;11.970;2023-11-21T02:47:33;12.05;;;7.70;;
14799;SDS011;7491;57.750;11.970;2023-11-21T02:49:59;14.02;;;8.65;;
14799;SDS011;7491;57.750;11.970;2023-11-21T02:52:26;12.65;;;8.52;;
14799;SDS011;7491;57.750;11.970;2023-11-21T02:54:53;11.30;;;7.78;;
14799;SDS011;7491;57.750;11.970;2023-11-21T02:57:21;13.27;;;8.98;;
14799;SDS011;7491;57.750;11.970;2023-11-21T02:59:47;13.52;;;8.02;;
14799;SDS011;7491;57.750;11.970;2023-11-21T03:02:15;11.85;;;8.52;;
14799;SDS011;7491;57.750;11.970;2023-11-21T03:04:42;14.32;;;8.93;;
14799;SDS011;7491;57.750;11.970;2023-11-21T03:07:09;11.07;;;9.02;;
14799;SDS011;7491;57.750;11.970;2023-11-21T03:09:36;11.52;;;8.00;;
14799;SDS011;7491;57.750;11.970;2023-11-21T03:12:03;11.27;;;7.97;;
14799;SDS011;7491;57.750;11.970;2023-11-21T03:14:31;13.23;;;8.57;;
14799;SDS011;7491;57.750;11.970;2023-11-21T03:16:58;10.85;;;8.18;;
14799;SDS011;7491;57.750;11.970;2023-11-21T03:19:25;12.30;;;7.50;;
14799;SDS011;7491;57.750;11.970;2023-11-21T03:21:51;10.13;;;7.40;;
14799;SDS011;7491;57.750;11.970;2023-11-21T03:24:18;12.00;;;8.45;;
14799;SDS011;7491;57.750;11.970;2023-11-21T03:26:47;10.60;;;7.22;;
14799;SDS011;7491;57.750;11.970;2023-11-21T03:29:15;9.90;;;8.15;;
14799;SDS011;7491;57.750;11.970;2023-11-21T03:31:43;9.60;;;7.28;;
14799;SDS011;7491;57.750;11.970;2023-11-21T03:34:14;9.52;;;7.45;;
14799;SDS011;7491;57.750;11.970;2023-11-21T03:36:43;10.77;;;7.57;;
14799;SDS011;7491;57.750;11.970;2023-11-21T03:39:11;10.05;;;7.30;;
14799;SDS011;7491;57.750;11.970;2023-11-21T03:41:38;8.80;;;6.93;;
14799;SDS011;7491;57.750;11.970;2023-11-21T03:44:04;8.75;;;6.72;;
14799;SDS011;7491;57.750;11.970;2023-11-21T03:46:31;11.82;;;6.90;;
14799;SDS011;7491;57.750;11.970;2023-11-21T03:48:59;8.48;;;6.45;;
14799;SDS011;7491;57.750;11.970;2023-11-21T03:51:26;12.57;;;7.68;;
14799;SDS011;7491;57.750;11.970;2023-11-21T03:53:53;9.07;;;6.53;;
14799;SDS011;7491;57.750;11.970;2023-11-21T03:56:19;9.05;;;6.88;;
14799;SDS011;7491;57.750;11.970;2023-11-21T03:58:46;11.27;;;8.13;;
14799;SDS011;7491;57.750;11.970;2023-11-21T04:01:18;9.70;;;6.78;;
14799;SDS011;7491;57.750;11.970;2023-11-21T04:03:46;10.13;;;6.75;;
14799;SDS011;7491;57.750;11.970;2023-11-21T04:06:14;9.95;;;7.65;;
14799;SDS011;7491;57.750;11.970;2023-11-21T04:08:42;6.45;;;5.20;;
14799;SDS011;7491;57.750;11.970;2023-11-21T04:11:09;13.30;;;7.28;;
14799;SDS011;7491;57.750;11.970;2023-11-21T04:13:36;10.85;;;9.20;;
14799;SDS011;7491;57.750;11.970;2023-11-21T04:16:03;7.30;;;5.45;;
14799;SDS011;7491;57.750;11.970;2023-11-21T04:18:31;12.15;;;7.47;;
14799;SDS011;7491;57.750;11.970;2023-11-21T04:20:58;11.38;;;6.10;;
14799;SDS011;7491;57.750;11.970;2023-11-21T04:23:27;10.77;;;7.75;;
14799;SDS011;7491;57.750;11.970;2023-11-21T04:25:55;14.65;;;6.80;;
14799;SDS011;7491;57.750;11.970;2023-11-21T04:28:22;8.80;;;7.20;;
14799;SDS011;7491;57.750;11.970;2023-11-21T04:30:49;10.55;;;7.30;;
14799;SDS011;7491;57.750;11.970;2023-11-21T04:33:16;11.65;;;6.65;;
14799;SDS011;7491;57.750;11.970;2023-11-21T04:35:43;10.93;;;7.15;;
14799;SDS011;7491;57.750;11.970;2023-11-21T04:38:09;9.85;;;7.40;;
14799;SDS011;7491;57.750;11.970;2023-11-21T04:40:38;9.65;;;7.63;;
14799;SDS011;7491;57.750;11.970;2023-11-21T04:43:04;10.73;;;6.85;;
14799;SDS011;7491;57.750;11.970;2023-11-21T04:45:31;9.88;;;7.10;;
14799;SDS011;7491;57.750;11.970;2023-11-21T04:47:58;9.50;;;5.63;;
14799;SDS011;7491;57.750;11.970;2023-11-21T04:50:25;11.20;;;7.28;;
14799;SDS011;7491;57.750;11.970;2023-11-21T04:52:52;9.45;;;6.68;;
14799;SDS011;7491;57.750;11.970;2023-11-21T04:55:19;14.23;;;7.80;;
14799;SDS011;7491;57.750;11.970;2023-11-21T04:57:47;8.85;;;6.03;;
14799;SDS011;7491;57.750;11.970;2023-11-21T05:00:14;17.70;;;8.25;;
14799;SDS011;7491;57.750;11.970;2023-11-21T05:02:41;14.75;;;10.05;;
14799;SDS011;7491;57.750;11.970;2023-11-21T05:05:08;14.80;;;7.50;;
14799;SDS011;7491;57.750;11.970;2023-11-21T05:07:35;11.10;;;7.22;;
14799;SDS011;7491;57.750;11.970;2023-11-21T05:10:03;12.90;;;7.30;;
14799;SDS011;7491;57.750;11.970;2023-11-21T05:12:33;12.52;;;7.03;;
14799;SDS011;7491;57.750;11.970;2023-11-21T05:15:03;12.40;;;7.18;;
14799;SDS011;7491;57.750;11.970;2023-11-21T05:17:34;11.35;;;7.63;;
14799;SDS011;7491;57.750;11.970;2023-11-21T05:20:01;10.60;;;8.05;;
14799;SDS011;7491;57.750;11.970;2023-11-21T05:22:29;9.43;;;6.82;;
14799;SDS011;7491;57.750;11.970;2023-11-21T05:24:55;13.15;;;7.97;;
14799;SDS011;7491;57.750;11.970;2023-11-21T05:27:24;11.90;;;7.40;;
14799;SDS011;7491;57.750;11.970;2023-11-21T05:29:51;11.63;;;8.48;;
14799;SDS011;7491;57.750;11.970;2023-11-21T05:32:19;12.45;;;7.25;;
14799;SDS011;7491;57.750;11.970;2023-11-21T05:34:46;9.85;;;6.60;;
14799;SDS011;7491;57.750;11.970;2023-11-21T05:37:13;9.48;;;6.63;;
14799;SDS011;7491;57.750;11.970;2023-11-21T05:39:39;9.18;;;6.35;;
14799;SDS011;7491;57.750;11.970;2023-11-21T05:42:06;14.70;;;7.10;;
14799;SDS011;7491;57.750;11.970;2023-11-21T05:44:34;9.57;;;7.03;;
14799;SDS011;7491;57.750;11.970;2023-11-21T05:47:01;8.43;;;6.65;;
14799;SDS011;7491;57.750;11.970;2023-11-21T05:49:30;11.25;;;6.40;;
14799;SDS011;7491;57.750;11.970;2023-11-21T05:51:57;11.10;;;9.15;;
14799;SDS011;7491;57.750;11.970;2023-11-21T05:54:24;11.80;;;5.97;;
14799;SDS011;7491;57.750;11.970;2023-11-21T05:56:51;14.15;;;8.27;;
14799;SDS011;7491;57.750;11.970;2023-11-21T05:59:18;12.77;;;7.03;;
14799;SDS011;7491;57.750;11.970;2023-11-21T06:01:45;14.88;;;7.40;;
14799;SDS011;7491;57.750;11.970;2023-11-21T06:04:12;18.10;;;7.38;;
14799;SDS011;7491;57.750;11.970;2023-11-21T06:06:41;11.65;;;7.32;;
14799;SDS011;7491;57.750;11.970;2023-11-21T06:09:07;11.82;;;6.97;;
14799;SDS011;7491;57.750;11.970;2023-11-21T06:11:34;11.38;;;6.50;;
14799;SDS011;7491;57.750;11.970;2023-11-21T06:14:01;11.63;;;6.45;;
14799;SDS011;7491;57.750;11.970;2023-11-21T06:16:28;9.57;;;6.82;;
14799;SDS011;7491;57.750;11.970;2023-11-21T06:18:55;12.65;;;6.78;;
14799;SDS011;7491;57.750;11.970;2023-11-21T06:21:21;8.38;;;5.72;;
14799;SDS011;7491;57.750;11.970;2023-11-21T06:23:50;9.02;;;6.72;;
14799;SDS011;7491;57.750;11.970;2023-11-21T06:26:18;8.93;;;7.07;;
14799;SDS011;7491;57.750;11.970;2023-11-21T06:28:45;11.13;;;6.38;;
14799;SDS011;7491;57.750;11.970;2023-11-21T06:31:12;9.25;;;4.65;;
14799;SDS011;7491;57.750;11.970;2023-11-21T06:33:39;11.65;;;6.72;;
14799;SDS011;7491;57.750;11.970;2023-11-21T06:36:06;8.98;;;6.15;;
14799;SDS011;7491;57.750;11.970;2023-11-21T06:38:36;8.55;;;6.32;;
14799;SDS011;7491;57.750;11.970;2023-11-21T06:41:05;12.50;;;6.22;;
14799;SDS011;7491;57.750;11.970;2023-11-21T06:43:32;11.52;;;6.53;;
14799;SDS011;7491;57.750;11.970;2023-11-21T06:45:59;8.15;;;6.43;;
14799;SDS011;7491;57.750;11.970;2023-11-21T06:48:25;9.93;;;6.45;;
14799;SDS011;7491;57.750;11.970;2023-11-21T06:50:52;10.10;;;6.72;;
14799;SDS011;7491;57.750;11.970;2023-11-21T06:53:19;9.50;;;6.15;;
14799;SDS011;7491;57.750;11.970;2023-11-21T06:55:46;9.27;;;6.07;;
14799;SDS011;7491;57.750;11.970;2023-11-21T06:58:14;9.48;;;6.00;;
14799;SDS011;7491;57.750;11.970;2023-11-21T07:00:40;12.30;;;7.43;;
14799;SDS011;7491;57.750;11.970;2023-11-21T07:03:11;9.80;;;6.53;;
14799;SDS011;7491;57.750;11.970;2023-11-21T07:05:38;8.32;;;6.28;;
14799;SDS011;7491;57.750;11.970;2023-11-21T07:08:05;9.55;;;6.43;;
14799;SDS011;7491;57.750;11.970;2023-11-21T07:10:32;9.88;;;6.47;;
14799;SDS011;7491;57.750;11.970;2023-11-21T07:13:00;9.00;;;5.72;;
14799;SDS011;7491;57.750;11.970;2023-11-21T07:15:28;10.45;;;7.45;;
14799;SDS011;7491;57.750;11.970;2023-11-21T07:17:54;9.30;;;6.10;;
14799;SDS011;7491;57.750;11.970;2023-11-21T07:20:21;9.35;;;5.35;;
14799;SDS011;7491;57.750;11.970;2023-11-21T07:22:48;7.47;;;5.10;;
14799;SDS011;7491;57.750;11.970;2023-11-21T07:25:15;8.95;;;6.65;;
14799;SDS011;7491;57.750;11.970;2023-11-21T07:27:42;8.45;;;5.80;;
14799;SDS011;7491;57.750;11.970;2023-11-21T07:30:09;8.60;;;6.07;;
14799;SDS011;7491;57.750;11.970;2023-11-21T07:32:39;6.93;;;5.43;;
14799;SDS011;7491;57.750;11.970;2023-11-21T07:35:06;8.68;;;6.38;;
14799;SDS011;7491;57.750;11.970;2023-11-21T07:37:34;6.80;;;5.05;;
14799;SDS011;7491;57.750;11.970;2023-11-21T07:40:00;9.60;;;5.30;;
14799;SDS011;7491;57.750;11.970;2023-11-21T07:42:28;9.27;;;5.80;;
14799;SDS011;7491;57.750;11.970;2023-11-21T07:44:55;7.68;;;4.97;;
14799;SDS011;7491;57.750;11.970;2023-11-21T07:47:21;10.48;;;6.25;;
14799;SDS011;7491;57.750;11.970;2023-11-21T07:49:53;9.68;;;5.70;;
14799;SDS011;7491;57.750;11.970;2023-11-21T07:52:21;8.77;;;5.85;;
14799;SDS011;7491;57.750;11.970;2023-11-21T07:54:47;9.55;;;7.18;;
14799;SDS011;7491;57.750;11.970;2023-11-21T07:57:14;9.50;;;6.13;;
14799;SDS011;7491;57.750;11.970;2023-11-21T07:59:41;8.43;;;5.40;;
14799;SDS011;7491;57.750;11.970;2023-11-21T08:02:08;10.30;;;5.78;;
14799;SDS011;7491;57.750;11.970;2023-11-21T08:04:34;8.50;;;6.40;;
14799;SDS011;7491;57.750;11.970;2023-11-21T08:07:03;9.45;;;6.40;;
14799;SDS011;7491;57.750;11.970;2023-11-21T08:09:30;9.05;;;4.75;;
14799;SDS011;7491;57.750;11.970;2023-11-21T08:11:56;9.02;;;6.18;;
14799;SDS011;7491;57.750;11.970;2023-11-21T08:14:25;11.05;;;6.38;;
14799;SDS011;7491;57.750;11.970;2023-11-21T08:16:52;9.85;;;5.47;;
14799;SDS011;7491;57.750;11.970;2023-11-21T08:19:22;10.68;;;6.20;;
14799;SDS011;7491;57.750;11.970;2023-11-21T08:21:50;8.48;;;5.55;;
14799;SDS011;7491;57.750;11.970;2023-11-21T08:24:21;10.43;;;7.25;;
14799;SDS011;7491;57.750;11.970;2023-11-21T08:26:47;7.90;;;5.35;;
14799;SDS011;7491;57.750;11.970;2023-11-21T08:29:15;9.90;;;6.60;;
14799;SDS011;7491;57.750;11.970;2023-11-21T08:31:42;10.20;;;6.30;;
14799;SDS011;7491;57.750;11.970;2023-11-21T08:34:09;11.07;;;5.57;;
14799;SDS011;7491;57.750;11.970;2023-11-21T08:36:36;9.60;;;6.45;;
14799;SDS011;7491;57.750;11.970;2023-11-21T08:39:07;10.73;;;6.82;;
14799;SDS011;7491;57.750;11.970;2023-11-21T08:41:36;15.43;;;7.05;;
14799;SDS011;7491;57.750;11.970;2023-11-21T08:44:03;11.23;;;7.00;;
14799;SDS011;7491;57.750;11.970;2023-11-21T08:46:32;10.05;;;5.57;;
14799;SDS011;7491;57.750;11.970;2023-11-21T08:48:59;9.10;;;5.40;;
14799;SDS011;7491;57.750;11.970;2023-11-21T08:51:26;6.28;;;5.60;;
14799;SDS011;7491;57.750;11.970;2023-11-21T08:53:53;12.15;;;5.97;;
14799;SDS011;7491;57.750;11.970;2023-11-21T08:56:24;12.23;;;6.75;;
14799;SDS011;7491;57.750;11.970;2023-11-21T08:58:52;10.13;;;7.13;;
14799;SDS011;7491;57.750;11.970;2023-11-21T09:01:19;10.63;;;7.70;;
14799;SDS011;7491;57.750;11.970;2023-11-21T09:03:46;9.35;;;6.45;;
14799;SDS011;7491;57.750;11.970;2023-11-21T09:06:13;7.75;;;5.20;;
14799;SDS011;7491;57.750;11.970;2023-11-21T09:08:39;8.32;;;5.38;;
14799;SDS011;7491;57.750;11.970;2023-11-21T09:11:07;9.85;;;6.43;;
14799;SDS011;7491;57.750;11.970;2023-11-21T09:13:34;9.52;;;6.22;;
14799;SDS011;7491;57.750;11.970;2023-11-21T09:16:03;11.95;;;6.47;;
14799;SDS011;7491;57.750;11.970;2023-11-21T09:18:30;8.60;;;4.90;;
14799;SDS011;7491;57.750;11.970;2023-11-21T09:20:57;8.27;;;4.93;;
14799;SDS011;7491;57.750;11.970;2023-11-21T09:23:25;3.20;;;2.47;;
14799;SDS011;7491;57.750;11.970;2023-11-21T09:25:52;14.30;;;5.80;;
14799;SDS011;7491;57.750;11.970;2023-11-21T09:28:22;8.95;;;5.68;;
14799;SDS011;7491;57.750;11.970;2023-11-21T09:30:48;10.52;;;6.07;;
14799;SDS011;7491;57.750;11.970;2023-11-21T09:33:16;8.95;;;6.00;;
14799;SDS011;7491;57.750;11.970;2023-11-21T09:35:43;6.30;;;4.43;;
14799;SDS011;7491;57.750;11.970;2023-11-21T09:38:10;9.88;;;6.40;;
14799;SDS011;7491;57.750;11.970;2023-11-21T09:40:37;6.55;;;5.00;;
14799;SDS011;7491;57.750;11.970;2023-11-21T09:43:05;8.43;;;5.47;;
14799;SDS011;7491;57.750;11.970;2023-11-21T09:45:34;7.07;;;5.18;;
14799;SDS011;7491;57.750;11.970;2023-11-21T09:48:02;8.80;;;5.30;;
14799;SDS011;7491;57.750;11.970;2023-11-21T09:50:30;6.43;;;4.03;;
14799;SDS011;7491;57.750;11.970;2023-11-21T09:53:07;5.10;;;3.88;;
14799;SDS011;7491;57.750;11.970;2023-11-21T09:55:41;7.88;;;5.30;;
14799;SDS011;7491;57.750;11.970;2023-11-21T09:58:09;5.15;;;4.13;;
14799;SDS011;7491;57.750;11.970;2023-11-21T10:00:37;7.60;;;5.13;;
14799;SDS011;7491;57.750;11.970;2023-11-21T10:03:07;6.72;;;4.20;;
14799;SDS011;7491;57.750;11.970;2023-11-21T10:05:35;6.50;;;4.22;;
14799;SDS011;7491;57.750;11.970;2023-11-21T10:08:03;4.70;;;3.85;;
14799;SDS011;7491;57.750;11.970;2023-11-21T10:10:33;6.22;;;4.57;;
14799;SDS011;7491;57.750;11.970;2023-11-21T10:13:01;6.25;;;4.57;;
14799;SDS011;7491;57.750;11.970;2023-11-21T10:15:31;5.43;;;4.43;;
14799;SDS011;7491;57.750;11.970;2023-11-21T10:18:01;8.80;;;5.57;;
14799;SDS011;7491;57.750;11.970;2023-11-21T10:20:31;5.55;;;4.95;;
14799;SDS011;7491;57.750;11.970;2023-11-21T10:23:00;6.20;;;4.40;;
14799;SDS011;7491;57.750;11.970;2023-11-21T10:25:28;3.45;;;3.15;;
14799;SDS011;7491;57.750;11.970;2023-11-21T10:27:57;6.47;;;4.95;;
14799;SDS011;7491;57.750;11.970;2023-11-21T10:30:27;8.75;;;4.00;;
14799;SDS011;7491;57.750;11.970;2023-11-21T10:32:58;5.00;;;3.80;;
14799;SDS011;7491;57.750;11.970;2023-11-21T10:35:25;6.13;;;3.70;;
14799;SDS011;7491;57.750;11.970;2023-11-21T10:38:06;6.30;;;4.30;;
14799;SDS011;7491;57.750;11.970;2023-11-21T10:40:37;6.57;;;4.68;;
14799;SDS011;7491;57.750;11.970;2023-11-21T10:43:07;3.15;;;2.75;;
14799;SDS011;7491;57.750;11.970;2023-11-21T10:45:35;3.78;;;3.17;;
14799;SDS011;7491;57.750;11.970;2023-11-21T10:48:04;8.52;;;4.30;;
14799;SDS011;7491;57.750;11.970;2023-11-21T10:50:33;7.32;;;3.70;;
14799;SDS011;7491;57.750;11.970;2023-11-21T10:53:01;4.55;;;3.70;;
14799;SDS011;7491;57.750;11.970;2023-11-21T10:55:30;5.68;;;4.25;;
14799;SDS011;7491;57.750;11.970;2023-11-21T10:57:58;5.60;;;4.40;;
14799;SDS011;7491;57.750;11.970;2023-11-21T11:00:27;6.30;;;3.47;;
14799;SDS011;7491;57.750;11.970;2023-11-21T11:02:54;5.13;;;4.50;;
14799;SDS011;7491;57.750;11.970;2023-11-21T11:05:22;5.70;;;4.13;;
14799;SDS011;7491;57.750;11.970;2023-11-21T11:07:51;8.68;;;3.90;;
14799;SDS011;7491;57.750;11.970;2023-11-21T11:10:24;7.60;;;3.72;;
14799;SDS011;7491;57.750;11.970;2023-11-21T11:12:53;6.30;;;4.10;;
14799;SDS011;7491;57.750;11.970;2023-11-21T11:15:22;3.50;;;3.20;;
14799;SDS011;7491;57.750;11.970;2023-11-21T11:17:49;5.82;;;3.72;;
14799;SDS011;7491;57.750;11.970;2023-11-21T11:20:16;6.32;;;3.42;;
14799;SDS011;7491;57.750;11.970;2023-11-21T11:22:48;5.93;;;4.00;;
14799;SDS011;7491;57.750;11.970;2023-11-21T11:25:25;4.85;;;3.60;;
14799;SDS011;7491;57.750;11.970;2023-11-21T11:28:03;5.75;;;3.90;;
14799;SDS011;7491;57.750;11.970;2023-11-21T11:30:39;4.22;;;3.65;;
14799;SDS011;7491;57.750;11.970;2023-11-21T11:33:15;4.82;;;3.95;;
14799;SDS011;7491;57.750;11.970;2023-11-21T11:35:52;6.40;;;4.15;;
14799;SDS011;7491;57.750;11.970;2023-11-21T11:38:30;4.70;;;3.90;;
14799;SDS011;7491;57.750;11.970;2023-11-21T11:41:00;4.43;;;3.53;;
14799;SDS011;7491;57.750;11.970;2023-11-21T11:43:30;5.40;;;3.65;;
14799;SDS011;7491;57.750;11.970;2023-11-21T11:46:05;3.28;;;2.78;;
14799;SDS011;7491;57.750;11.970;2023-11-21T11:48:34;5.88;;;3.15;;
14799;SDS011;7491;57.750;11.970;2023-11-21T11:51:04;6.93;;;3.85;;
14799;SDS011;7491;57.750;11.970;2023-11-21T11:53:37;4.60;;;3.72;;
14799;SDS011;7491;57.750;11.970;2023-11-21T11:58:58;5.65;;;3.83;;
14799;SDS011;7491;57.750;11.970;2023-11-21T12:01:27;4.95;;;3.65;;
14799;SDS011;7491;57.750;11.970;2023-11-21T12:06:56;4.47;;;3.65;;
14799;SDS011;7491;57.750;11.970;2023-11-21T12:09:27;5.60;;;3.70;;
14799;SDS011;7491;57.750;11.970;2023-11-21T12:11:55;6.55;;;3.20;;
14799;SDS011;7491;57.750;11.970;2023-11-21T12:14:23;3.95;;;3.50;;
14799;SDS011;7491;57.750;11.970;2023-11-21T12:16:50;3.63;;;3.20;;
14799;SDS011;7491;57.750;11.970;2023-11-21T12:19:18;5.20;;;3.25;;
14799;SDS011;7491;57.750;11.970;2023-11-21T12:21:47;3.88;;;3.13;;
14799;SDS011;7491;57.750;11.970;2023-11-21T12:24:15;3.90;;;3.30;;
14799;SDS011;7491;57.750;11.970;2023-11-21T12:26:42;5.85;;;3.55;;
14799;SDS011;7491;57.750;11.970;2023-11-21T12:29:10;3.33;;;1.83;;
14799;SDS011;7491;57.750;11.970;2023-11-21T12:31:38;4.60;;;3.20;;
14799;SDS011;7491;57.750;11.970;2023-11-21T12:34:05;4.38;;;3.22;;
14799;SDS011;7491;57.750;11.970;2023-11-21T12:36:32;3.38;;;2.92;;
14799;SDS011;7491;57.750;11.970;2023-11-21T12:39:00;5.60;;;3.90;;
14799;SDS011;7491;57.750;11.970;2023-11-21T12:41:28;5.78;;;3.28;;
14799;SDS011;7491;57.750;11.970;2023-11-21T12:43:55;6.40;;;2.97;;
14799;SDS011;7491;57.750;11.970;2023-11-21T12:46:22;4.03;;;3.15;;
14799;SDS011;7491;57.750;11.970;2023-11-21T12:48:52;4.40;;;3.25;;
14799;SDS011;7491;57.750;11.970;2023-11-21T12:51:19;4.15;;;3.38;;
14799;SDS011;7491;57.750;11.970;2023-11-21T12:53:47;5.15;;;3.35;;
14799;SDS011;7491;57.750;11.970;2023-11-21T12:56:15;3.72;;;2.92;;
14799;SDS011;7491;57.750;11.970;2023-11-21T12:58:43;3.78;;;3.13;;
14799;SDS011;7491;57.750;11.970;2023-11-21T13:01:12;2.22;;;1.90;;
14799;SDS011;7491;57.750;11.970;2023-11-21T13:03:43;4.00;;;3.05;;
14799;SDS011;7491;57.750;11.970;2023-11-21T13:06:15;5.53;;;3.30;;
14799;SDS011;7491;57.750;11.970;2023-11-21T13:08:43;4.82;;;3.15;;
14799;SDS011;7491;57.750;11.970;2023-11-21T13:11:10;4.13;;;2.53;;
14799;SDS011;7491;57.750;11.970;2023-11-21T13:13:39;4.22;;;2.92;;
14799;SDS011;7491;57.750;11.970;2023-11-21T13:16:07;6.22;;;3.50;;
14799;SDS011;7491;57.750;11.970;2023-11-21T13:18:35;3.88;;;3.20;;
14799;SDS011;7491;57.750;11.970;2023-11-21T13:21:03;3.70;;;2.85;;
14799;SDS011;7491;57.750;11.970;2023-11-21T13:23:36;3.75;;;2.80;;
14799;SDS011;7491;57.750;11.970;2023-11-21T13:26:03;7.00;;;3.13;;
14799;SDS011;7491;57.750;11.970;2023-11-21T13:28:31;2.97;;;2.65;;
14799;SDS011;7491;57.750;11.970;2023-11-21T13:30:58;4.72;;;3.13;;
14799;SDS011;7491;57.750;11.970;2023-11-21T13:33:28;4.40;;;2.80;;
14799;SDS011;7491;57.750;11.970;2023-11-21T13:35:55;3.80;;;2.90;;
14799;SDS011;7491;57.750;11.970;2023-11-21T13:38:22;3.05;;;2.72;;
14799;SDS011;7491;57.750;11.970;2023-11-21T13:40:51;3.72;;;2.78;;
14799;SDS011;7491;57.750;11.970;2023-11-21T13:43:20;4.05;;;2.78;;
14799;SDS011;7491;57.750;11.970;2023-11-21T13:45:49;3.88;;;2.60;;
14799;SDS011;7491;57.750;11.970;2023-11-21T13:48:21;6.25;;;2.72;;
14799;SDS011;7491;57.750;11.970;2023-11-21T13:50:56;3.67;;;2.80;;
14799;SDS011;7491;57.750;11.970;2023-11-21T13:53:26;3.15;;;2.85;;
14799;SDS011;7491;57.750;11.970;2023-11-21T13:55:54;3.45;;;2.28;;
14799;SDS011;7491;57.750;11.970;2023-11-21T13:58:22;4.55;;;2.88;;
14799;SDS011;7491;57.750;11.970;2023-11-21T14:01:00;3.47;;;2.75;;
14799;SDS011;7491;57.750;11.970;2023-11-21T14:03:26;3.90;;;3.17;;
14799;SDS011;7491;57.750;11.970;2023-11-21T14:06:03;5.00;;;2.72;;
14799;SDS011;7491;57.750;11.970;2023-11-21T14:08:38;4.10;;;2.78;;
14799;SDS011;7491;57.750;11.970;2023-11-21T14:11:06;3.70;;;2.88;;
14799;SDS011;7491;57.750;11.970;2023-11-21T14:13:36;3.30;;;2.88;;
14799;SDS011;7491;57.750;11.970;2023-11-21T14:16:03;3.72;;;2.72;;
14799;SDS011;7491;57.750;11.970;2023-11-21T14:18:31;3.22;;;2.55;;
14799;SDS011;7491;57.750;11.970;2023-11-21T14:21:03;4.63;;;2.50;;
14799;SDS011;7491;57.750;11.970;2023-11-21T14:23:30;3.30;;;2.60;;
14799;SDS011;7491;57.750;11.970;2023-11-21T14:26:03;4.95;;;3.10;;
14799;SDS011;7491;57.750;11.970;2023-11-21T14:28:32;4.78;;;3.13;;
14799;SDS011;7491;57.750;11.970;2023-11-21T14:31:00;4.57;;;2.47;;
14799;SDS011;7491;57.750;11.970;2023-11-21T14:33:27;3.38;;;3.03;;
14799;SDS011;7491;57.750;11.970;2023-11-21T14:35:53;5.35;;;2.80;;
14799;SDS011;7491;57.750;11.970;2023-11-21T14:38:20;3.35;;;2.38;;
14799;SDS011;7491;57.750;11.970;2023-11-21T14:40:46;4.35;;;3.40;;
14799;SDS011;7491;57.750;11.970;2023-11-21T14:43:13;3.50;;;2.80;;
14799;SDS011;7491;57.750;11.970;2023-11-21T14:45:42;3.35;;;2.63;;
14799;SDS011;7491;57.750;11.970;2023-11-21T14:48:09;3.95;;;3.00;;
14799;SDS011;7491;57.750;11.970;2023-11-21T14:50:41;3.20;;;2.72;;